• Join FlightAware (Why Join?)
  • Login
  • US Flag 
07:20PM EDT


 

Airport Tracker/Info


-or-


 

Live Flight TrackerFlight Track Log ✈ SKW6301 ✈ 26-Aug-2013 ✈ KORD - KMSO

Flight Track Log - Related Links

Times and Time Zones

All times are in EDT time to prevent confusion due to time zone crossing. See the SKW6301 flight status page for this flight to view local times or setup timezone preferences in your user account.

Time Position Orientation Groundspeed Altitude Reporting Facility
EDT Latitude Longitude Course Direction KTS MPH feet Rate Location/Type
11:22AM 42.0167 -87.9667 346° North 167 192 2,600  Level Chicago TRACON
11:23AM 42.0667 -88.0000 334° Northwest 232 267 4,200 1,980 Climbing Chicago TRACON
11:24AM 42.1439 -88.0133 353° North 262 302 7,000 2,220 Climbing Chicago Center
11:25AM 42.2211 -88.0128 360° North 277 319 9,200 2,280 Climbing Chicago Center
11:26AM 42.5348 -88.0894 346° North  Level FlightAware Approximate
11:26AM 42.3025 -88.0194 357° North 290 334 11,800  Level Chicago Center
11:27AM 42.6493 -88.1275 346° North  Level FlightAware Approximate
11:27AM 42.3944 -88.0231 358° North 302 348 14,200  Level Chicago Center
11:28AM 42.4814 -88.0572 344° North 321 369 16,100 2,040 Climbing Chicago Center
11:29AM 42.5847 -88.0936 345° North 328 377 18,500 2,040 Climbing Chicago Center
11:30AM 42.6756 -88.1253 346° North 335 386 20,400 1,620 Climbing Chicago Center
11:31AM 42.7667 -88.1586 345° North 341 392 21,900 1,440 Climbing Chicago Center
11:32AM 42.8589 -88.1928 345° North 341 392 23,400 1,500 Climbing Chicago Center
11:33AM 42.9528 -88.2267 345° North 348 400 25,000 1,260 Climbing Chicago Center
11:34AM 43.0483 -88.2603 346° North 353 406 26,100 1,140 Climbing Chicago Center
11:36AM 43.1411 -88.3489 325° Northwest 364 419 27,400 1,200 Climbing Chicago Center
11:37AM 43.1761 -88.4817 290° West 369 425 28,600 960 Climbing Chicago Center
11:38AM 43.2153 -88.6167 292° West 374 430 29,500 780 Climbing Chicago Center
11:39AM 43.2564 -88.7567 292° West 388 447 30,300 720 Climbing Chicago Center
11:40AM 43.2986 -88.8986 292° West 396 456 31,100 660 Climbing Chicago Center
11:41AM 43.3414 -89.0442 292° West 407 468 31,700 480 Climbing Chicago Center
11:42AM 43.3850 -89.1919 292° West 414 476 32,200 660 Climbing Chicago Center
11:43AM 43.4297 -89.3414 292° West 421 484 33,100 900 Climbing Chicago Center
11:44AM 43.4806 -89.5136 292° West 416 479 34,100 960 Climbing Chicago Center
11:45AM 43.5208 -89.6589 291° West 407 468 35,200 840 Climbing Chicago Center
11:46AM 43.5611 -89.8036 291° West 404 465 35,900 540 Climbing Chicago Center
11:47AM 43.5925 -89.9544 286° West 410 472 36,400 480 Climbing Chicago Center
11:48AM 43.6247 -90.1069 286° West 414 476 37,000 600 Climbing Chicago Center
11:49AM 43.6592 -90.2575 288° West 412 474 37,700 480 Climbing Chicago Center
11:50AM 43.6936 -90.4214 286° West 412 474 38,000 120 Climbing Chicago Center
11:51AM 43.7269 -90.5750 287° West 420 483 38,000  Level Chicago Center
11:52AM 43.7594 -90.7236 287° West 412 474 38,000  Level Chicago Center
11:53AM 43.8039 -90.8950 290° West 400 460 38,000  Level Chicago Center
11:54AM 43.8397 -91.0389 289° West 399 459 38,000  Level Chicago Center
11:55AM 43.8764 -91.1864 289° West 408 470 38,000  Level Chicago Center
11:56AM 43.9114 -91.3294 289° West 402 463 38,000  Level Minneapolis Center
11:57AM 43.9594 -91.5300 288° West 399 459 38,000  Level Minneapolis Center
11:58AM 43.9878 -91.6469 289° West 402 463 38,000  Level Minneapolis Center
12:00PM 44.0311 -91.8311 288° West 403 464 38,000  Level Minneapolis Center
12:01PM 44.0733 -92.0092 288° West 404 465 38,000  Level Minneapolis Center
12:02PM 44.1083 -92.1594 288° West 409 471 38,000  Level Minneapolis Center
12:03PM 44.1583 -92.3703 288° West 410 472 38,000  Level Minneapolis Center
12:04PM 44.1858 -92.4919 288° West 411 473 38,000  Level Minneapolis Center
12:05PM 44.2272 -92.6728 288° West 409 471 38,000  Level Minneapolis Center
12:06PM 44.2611 -92.8231 288° West 407 468 38,000  Level Minneapolis Center
12:07PM 44.2956 -92.9733 288° West 405 466 38,000  Level Minneapolis Center
12:08PM 44.3289 -93.1219 287° West 401 461 38,000  Level Minneapolis Center
12:09PM 44.3617 -93.2708 287° West 399 459 38,000  Level Minneapolis Center
12:10PM 44.4011 -93.4511 287° West 400 460 38,000  Level Minneapolis Center
12:11PM 44.4347 -93.5997 288° West 398 458 38,000  Level Minneapolis Center
12:13PM 44.4717 -93.7692 287° West  Level FlightAware Approximate
12:13PM 44.5014 -93.8969 287° West 398 458 38,000  Level Minneapolis Center
12:14PM 44.5328 -94.0442 287° West 395 455 38,000  Level Minneapolis Center
12:15PM 44.5650 -94.1908 287° West 394 453 38,000  Level Minneapolis Center
12:17PM 44.5961 -94.3375 287° West 394 453 38,000  Level Minneapolis Center
12:18PM 44.6397 -94.5411 287° West 390 449 38,000  Level Minneapolis Center
12:19PM 44.6672 -94.6736 286° West 391 450 38,000  Level Minneapolis Center
12:20PM 44.7033 -94.8478 286° West 390 449 38,000  Level Minneapolis Center
12:21PM 44.7272 -94.9636 286° West 389 448 38,000  Level Minneapolis Center
12:22PM 44.7628 -95.1372 286° West 388 447 38,000  Level Minneapolis Center
12:23PM 44.7928 -95.2825 286° West 388 447 38,000  Level Minneapolis Center
12:24PM 44.8211 -95.4283 285° West 389 448 38,000  Level Minneapolis Center
12:25PM 44.8561 -95.6019 286° West 387 445 38,000  Level Minneapolis Center
12:26PM 44.8839 -95.7461 285° West 385 443 38,000  Level Minneapolis Center
12:27PM 44.9131 -95.8908 286° West 386 444 38,000  Level Minneapolis Center
12:28PM 44.9417 -96.0358 286° West 386 444 38,000  Level Minneapolis Center
12:29PM 44.9694 -96.1822 285° West 388 447 38,000  Level Minneapolis Center
12:30PM 44.9975 -96.3272 285° West 387 445 38,000  Level Minneapolis Center
12:31PM 45.0306 -96.5000 285° West 383 441 38,000  Level Minneapolis Center
12:32PM 45.0583 -96.6469 285° West 387 445 38,000  Level Minneapolis Center
12:33PM 45.0850 -96.7928 285° West 386 444 38,000  Level Minneapolis Center
12:34PM 45.1122 -96.9375 285° West 384 442 38,000  Level Minneapolis Center
12:35PM 45.1389 -97.0831 285° West 384 442 38,000  Level Minneapolis Center
12:36PM 45.1667 -97.2264 285° West 382 440 38,000  Level Minneapolis Center
12:37PM 45.1981 -97.4006 284° West 382 440 38,000  Level Minneapolis Center
12:38PM 45.2242 -97.5464 284° West 384 442 38,000  Level Minneapolis Center
12:39PM 45.2508 -97.6925 285° West 384 442 38,000  Level Minneapolis Center
12:41PM 45.2760 -97.8446 283° West  Level FlightAware Approximate
12:41PM 45.2769 -97.8394 283° West 385 443 38,000  Level Minneapolis Center
12:42PM 45.3131 -98.0458 284° West 386 444 38,000  Level Minneapolis Center
12:43PM 45.3392 -98.1967 284° West 386 444 38,000  Level Minneapolis Center
12:44PM 45.3594 -98.3147 284° West 386 444 38,000  Level Minneapolis Center
12:45PM 45.3906 -98.4914 284° West 386 444 38,000  Level Minneapolis Center
12:46PM 45.4150 -98.6403 283° West 386 444 38,000  Level Minneapolis Center
12:47PM 45.4406 -98.7881 284° West 387 445 38,000  Level Minneapolis Center
12:48PM 45.4653 -98.9372 283° West 388 447 38,000  Level Minneapolis Center
12:49PM 45.4953 -99.1164 283° West 389 448 38,000  Level Minneapolis Center
12:50PM 45.5192 -99.2658 283° West 390 449 38,000  Level Minneapolis Center
12:51PM 45.5436 -99.4158 283° West 391 450 38,000  Level Minneapolis Center
12:52PM 45.5681 -99.5644 283° West 389 448 38,000  Level Minneapolis Center
12:53PM 45.5919 -99.7142 283° West 389 448 38,000  Level Minneapolis Center
12:54PM 45.6194 -99.8925 282° West 388 447 38,000  Level Minneapolis Center
12:55PM 45.6422 -100.0394 283° West 382 440 38,000  Level Minneapolis Center
12:56PM 45.6603 -100.1583 282° West 382 440 38,000  Level Minneapolis Center
12:57PM 45.6869 -100.3367 282° West 385 443 38,000  Level Minneapolis Center
12:58PM 45.7097 -100.4831 283° West 381 438 38,000  Level Minneapolis Center
12:59PM 45.7356 -100.6583 282° West 377 434 38,000  Level Minneapolis Center
01:00PM 45.7575 -100.8031 282° West 375 432 38,000  Level Minneapolis Center
01:01PM 45.7789 -100.9514 282° West 379 436 38,000  Level Minneapolis Center
01:02PM 45.8008 -101.0972 282° West 378 435 38,000  Level Minneapolis Center
01:03PM 45.8225 -101.2436 282° West 377 434 38,000  Level Minneapolis Center
01:05PM 45.8431 -101.3903 281° West 377 434 38,000  Level Minneapolis Center
01:06PM 45.8675 -101.5644 281° West 374 430 38,000  Level Minneapolis Center
01:07PM 45.8881 -101.7125 281° West 376 433 38,000  Level Minneapolis Center
01:08PM 45.9094 -101.8586 282° West 377 434 38,000  Level Minneapolis Center
01:09PM 45.9292 -102.0053 281° West 376 433 38,000  Level Minneapolis Center
01:10PM 45.9508 -102.1517 282° West 375 432 38,000  Level Minneapolis Center
01:11PM 45.9697 -102.3000 280° West 377 434 38,000  Level Minneapolis Center
01:12PM 45.9936 -102.4775 281° West 378 435 38,000  Level Minneapolis Center
01:13PM 46.0139 -102.6247 281° West 378 435 38,000  Level Minneapolis Center
01:14PM 46.0306 -102.7578 280° West 377 434 38,000  Level Minneapolis Center
01:15PM 46.0492 -102.9044 280° West 375 432 38,000  Level Minneapolis Center
01:16PM 46.0719 -103.0825 281° West 376 433 38,000  Level Minneapolis Center
01:17PM 46.0942 -103.2592 280° West 375 432 38,000  Level Minneapolis Center
01:18PM 46.1131 -103.4064 281° West 374 430 38,000  Level Minneapolis Center
01:19PM 46.1306 -103.5544 280° West 376 433 38,000  Level Minneapolis Center
01:20PM 46.1450 -103.6750 280° West 377 434 38,000  Level Minneapolis Center
01:21PM 46.1661 -103.8525 280° West 376 433 38,000  Level Minneapolis Center
01:22PM 46.1869 -104.0278 280° West 372 428 38,000  Level Minneapolis Center
01:23PM 46.2039 -104.1742 280° West 371 427 38,000  Level Minneapolis Center
01:24PM 46.2211 -104.3211 280° West 371 427 38,000  Level Minneapolis Center
01:25PM 46.2378 -104.4658 280° West 369 425 38,000  Level Minneapolis Center
01:27PM 46.2558 -104.6558 278° West 367 422 38,000  Level Salt Lake Center
01:28PM 46.2728 -104.8011 280° West 367 422 38,000  Level Salt Lake Center
01:29PM 46.2889 -104.9472 279° West 370 426 38,000  Level Salt Lake Center
01:30PM 46.3036 -105.0900 279° West 365 420 38,000  Level Salt Lake Center
01:31PM 46.3189 -105.2372 279° West 367 422 38,000  Level Salt Lake Center
01:32PM 46.3381 -105.4122 279° West 369 425 38,000  Level Salt Lake Center
01:33PM 46.3533 -105.5558 279° West 366 421 38,000  Level Salt Lake Center
01:34PM 46.3692 -105.7028 279° West 368 423 38,000  Level Salt Lake Center
01:35PM 46.3847 -105.8481 279° West 368 423 38,000  Level Salt Lake Center
01:36PM 46.4006 -105.9944 279° West 368 423 38,000  Level Salt Lake Center
01:37PM 46.4158 -106.1389 279° West 367 422 38,000  Level Salt Lake Center
01:38PM 46.4331 -106.3150 278° West 368 423 38,000  Level Salt Lake Center
01:39PM 46.4467 -106.4597 278° West 367 422 38,000  Level Salt Lake Center
01:40PM 46.4611 -106.6064 278° West 368 423 38,000  Level Salt Lake Center
01:41PM 46.4744 -106.7506 278° West 365 420 38,000  Level Salt Lake Center
01:42PM 46.4878 -106.8956 278° West 364 419 38,000  Level Salt Lake Center
01:43PM 46.5039 -107.0706 278° West 366 421 38,000  Level Salt Lake Center
01:44PM 46.5164 -107.2153 277° West 364 419 38,000  Level Salt Lake Center
01:45PM 46.5292 -107.3608 277° West 365 420 38,000  Level Salt Lake Center
01:46PM 46.5419 -107.5039 277° West 361 415 38,000  Level Salt Lake Center
01:47PM 46.5528 -107.6428 277° West 350 403 38,000  Level Salt Lake Center
01:48PM 46.5661 -107.7847 278° West 353 406 38,000  Level Salt Lake Center
01:49PM 46.5797 -107.9572 277° West 359 413 38,000  Level Salt Lake Center
01:50PM 46.5917 -108.1008 277° West 361 415 38,000  Level Salt Lake Center
01:51PM 46.6031 -108.2436 277° West 357 411 38,000  Level Salt Lake Center
01:52PM 46.6144 -108.3864 277° West 356 410 38,000  Level Salt Lake Center
01:54PM 46.6264 -108.5300 277° West 359 413 38,000  Level Salt Lake Center
01:55PM 46.6389 -108.7028 276° West 360 414 38,000  Level Salt Lake Center
01:56PM 46.6494 -108.8442 276° West 354 407 38,000  Level Salt Lake Center
01:57PM 46.6600 -108.9875 276° West 356 410 38,000  Level Salt Lake Center
01:58PM 46.6711 -109.1300 277° West 356 410 38,000  Level Salt Lake Center
01:59PM 46.6808 -109.2722 276° West 356 410 38,000  Level Salt Lake Center
02:00PM 46.6903 -109.4142 276° West 354 407 38,000  Level Salt Lake Center
02:01PM 46.7014 -109.5825 276° West 351 404 38,000  Level Salt Lake Center
02:02PM 46.7119 -109.7239 276° West 348 400 38,000  Level Salt Lake Center
02:03PM 46.7200 -109.8661 275° West 351 404 38,000  Level Salt Lake Center
02:04PM 46.7292 -110.0108 275° West 358 412 38,000  Level Salt Lake Center
02:05PM 46.7381 -110.1533 275° West 355 409 38,000  Level Salt Lake Center
02:06PM 46.7461 -110.2933 275° West 350 403 38,000  Level Salt Lake Center
02:07PM 46.7558 -110.4339 276° West 348 400 38,000  Level Salt Lake Center
02:08PM 46.7639 -110.5747 275° West 348 400 38,000  Level Salt Lake Center
02:09PM 46.7747 -110.7417 275° West 345 397 38,000  Level Salt Lake Center
02:10PM 46.7819 -110.8839 274° West 350 403 38,000  Level Salt Lake Center
02:11PM 46.7900 -111.0239 275° West 347 399 38,000  Level Salt Lake Center
02:12PM 46.7975 -111.1667 274° West 350 403 38,000  Level Salt Lake Center
02:13PM 46.8047 -111.3094 274° West 351 404 38,000  Level Salt Lake Center
02:14PM 46.8117 -111.4508 274° West 350 403 38,000 -1,020 Level Salt Lake Center
02:15PM 46.8206 -111.6225 274° West 352 405 35,900 -2,040 Descending Salt Lake Center
02:16PM 46.8275 -111.7600 274° West 345 397 33,900 -1,980 Descending Salt Lake Center
02:17PM 46.8331 -111.9006 273° West 344 396 31,900 -1,980 Descending Salt Lake Center
02:18PM 46.8406 -112.0694 274° West 398 458 29,900 -1,980 Descending Salt Lake Center
02:19PM 46.8475 -112.2347 274° West 408 470 27,900 -1,980 Descending Salt Lake Center
02:20PM 46.8547 -112.3981 274° West 406 467 25,900 -2,040 Descending Salt Lake Center
02:21PM 46.8628 -112.5600 274° West 402 463 23,800 -2,520 Descending Salt Lake Center
02:22PM 46.8711 -112.7475 274° West 390 449 20,800 -2,700 Descending Salt Lake Center
02:23PM 46.8775 -112.9014 274° West 383 441 18,300 -2,280 Descending Salt Lake Center
02:25PM 46.8819 -113.0378 273° West 376 433 16,100 -1,620 Descending Salt Lake Center
02:26PM 46.8883 -113.2072 273° West 349 402 15,000 -780 Descending Salt Lake Center
02:27PM 46.8850 -113.3511 268° West 331 381 14,600 -1,380 Descending Salt Lake Center
02:28PM 46.8556 -113.4597 248° West 291 335 12,200 -2,220 Descending Salt Lake Center
02:29PM 46.8203 -113.5767 246° West 292 336 10,100 -1,560 Descending Salt Lake Center
02:30PM 46.7933 -113.6775 249° West 273 314 9,000 -540 Descending Salt Lake Center
02:31PM 46.8036 -113.7894 278° West 256 295 9,000 -240 Level Salt Lake Center
02:32PM 46.8300 -113.8828 292° West 250 288 8,500 -900 Descending Salt Lake Center
02:33PM 46.8567 -113.9628 296° West 223 257 7,200 -1,560 Descending Salt Lake Center
02:34PM 46.8756 -114.0239 294° West 162 186 5,300 -1,860 Descending Salt Lake Center
02:35PM 46.9031 -114.0700 311° West 153 176 3,400 -1,860 Descending Salt Lake Center